sensor_id;sensor_type;location;lat;lon;timestamp;temperature;humidity
5808;DHT22;2930;42.678;23.312;2023-05-23T00:01:02;12.50;98.50
5808;DHT22;2930;42.678;23.312;2023-05-23T00:03:27;12.30;98.50
5808;DHT22;2930;42.678;23.312;2023-05-23T00:05:55;12.30;98.50
5808;DHT22;2930;42.678;23.312;2023-05-23T00:08:21;12.30;98.50
5808;DHT22;2930;42.678;23.312;2023-05-23T00:10:47;12.20;98.50
5808;DHT22;2930;42.678;23.312;2023-05-23T00:13:12;12.00;98.50
5808;DHT22;2930;42.678;23.312;2023-05-23T00:15:39;11.90;98.50
5808;DHT22;2930;42.678;23.312;2023-05-23T00:18:08;11.90;98.50
5808;DHT22;2930;42.678;23.312;2023-05-23T00:20:35;12.00;98.50
5808;DHT22;2930;42.678;23.312;2023-05-23T00:23:01;11.90;98.50
5808;DHT22;2930;42.678;23.312;2023-05-23T00:28:17;12.00;98.50
5808;DHT22;2930;42.678;23.312;2023-05-23T00:30:43;12.00;98.50
5808;DHT22;2930;42.678;23.312;2023-05-23T00:33:08;12.00;98.50
5808;DHT22;2930;42.678;23.312;2023-05-23T00:35:34;11.90;98.50
5808;DHT22;2930;42.678;23.312;2023-05-23T00:37:59;12.00;98.50
5808;DHT22;2930;42.678;23.312;2023-05-23T00:40:26;12.00;98.50
5808;DHT22;2930;42.678;23.312;2023-05-23T00:42:52;12.00;98.50
5808;DHT22;2930;42.678;23.312;2023-05-23T00:45:17;12.10;98.50
5808;DHT22;2930;42.678;23.312;2023-05-23T00:47:43;12.10;98.50
5808;DHT22;2930;42.678;23.312;2023-05-23T00:50:12;12.10;98.50
5808;DHT22;2930;42.678;23.312;2023-05-23T00:52:41;12.10;98.50
5808;DHT22;2930;42.678;23.312;2023-05-23T00:55:07;12.10;98.50
5808;DHT22;2930;42.678;23.312;2023-05-23T00:57:33;12.10;98.40
5808;DHT22;2930;42.678;23.312;2023-05-23T01:00:01;12.10;97.70
5808;DHT22;2930;42.678;23.312;2023-05-23T01:02:28;12.00;97.60
5808;DHT22;2930;42.678;23.312;2023-05-23T01:04:56;12.00;97.90
5808;DHT22;2930;42.678;23.312;2023-05-23T01:07:21;11.90;98.10
5808;DHT22;2930;42.678;23.312;2023-05-23T01:09:47;11.90;98.10
5808;DHT22;2930;42.678;23.312;2023-05-23T01:12:24;11.90;98.40
5808;DHT22;2930;42.678;23.312;2023-05-23T01:17:30;11.90;98.50
5808;DHT22;2930;42.678;23.312;2023-05-23T01:20:06;11.70;98.50
5808;DHT22;2930;42.678;23.312;2023-05-23T01:30:12;11.70;98.10
5808;DHT22;2930;42.678;23.312;2023-05-23T01:32:39;11.70;98.20
5808;DHT22;2930;42.678;23.312;2023-05-23T01:35:05;11.70;98.50
5808;DHT22;2930;42.678;23.312;2023-05-23T01:37:31;11.60;98.50
5808;DHT22;2930;42.678;23.312;2023-05-23T01:39:57;11.70;98.50
5808;DHT22;2930;42.678;23.312;2023-05-23T01:42:22;11.70;98.50
5808;DHT22;2930;42.678;23.312;2023-05-23T01:44:48;11.70;98.50
5808;DHT22;2930;42.678;23.312;2023-05-23T01:47:14;11.80;98.50
5808;DHT22;2930;42.678;23.312;2023-05-23T01:49:39;11.70;98.50
5808;DHT22;2930;42.678;23.312;2023-05-23T01:52:05;11.80;98.50
5808;DHT22;2930;42.678;23.312;2023-05-23T01:54:35;11.80;98.50
5808;DHT22;2930;42.678;23.312;2023-05-23T01:57:01;11.80;98.50
5808;DHT22;2930;42.678;23.312;2023-05-23T01:59:27;11.80;98.50
5808;DHT22;2930;42.678;23.312;2023-05-23T02:01:52;11.80;98.50
5808;DHT22;2930;42.678;23.312;2023-05-23T02:04:18;11.80;98.50
5808;DHT22;2930;42.678;23.312;2023-05-23T02:06:44;11.80;98.50
5808;DHT22;2930;42.678;23.312;2023-05-23T02:09:10;11.80;98.50
5808;DHT22;2930;42.678;23.312;2023-05-23T02:11:36;11.80;98.50
5808;DHT22;2930;42.678;23.312;2023-05-23T02:14:02;11.80;98.50
5808;DHT22;2930;42.678;23.312;2023-05-23T02:16:27;11.90;98.50
5808;DHT22;2930;42.678;23.312;2023-05-23T02:18:53;11.90;98.50
5808;DHT22;2930;42.678;23.312;2023-05-23T02:21:23;11.90;98.50
5808;DHT22;2930;42.678;23.312;2023-05-23T02:23:49;12.00;98.50
5808;DHT22;2930;42.678;23.312;2023-05-23T02:26:15;12.00;98.50
5808;DHT22;2930;42.678;23.312;2023-05-23T02:28:40;12.00;98.50
5808;DHT22;2930;42.678;23.312;2023-05-23T02:31:06;12.00;98.50
5808;DHT22;2930;42.678;23.312;2023-05-23T02:33:31;12.10;98.50
5808;DHT22;2930;42.678;23.312;2023-05-23T02:35:57;12.10;98.50
5808;DHT22;2930;42.678;23.312;2023-05-23T02:38:22;12.10;98.50
5808;DHT22;2930;42.678;23.312;2023-05-23T02:40:48;12.10;98.50
5808;DHT22;2930;42.678;23.312;2023-05-23T02:43:15;12.20;98.50
5808;DHT22;2930;42.678;23.312;2023-05-23T02:45:41;12.20;98.50
5808;DHT22;2930;42.678;23.312;2023-05-23T02:48:07;12.20;98.50
5808;DHT22;2930;42.678;23.312;2023-05-23T02:50:32;12.20;98.50
5808;DHT22;2930;42.678;23.312;2023-05-23T02:52:58;12.30;98.50
5808;DHT22;2930;42.678;23.312;2023-05-23T02:55:23;12.30;98.50
5808;DHT22;2930;42.678;23.312;2023-05-23T02:57:49;12.30;98.50
5808;DHT22;2930;42.678;23.312;2023-05-23T03:00:15;12.30;98.50
5808;DHT22;2930;42.678;23.312;2023-05-23T03:02:41;12.30;98.50
5808;DHT22;2930;42.678;23.312;2023-05-23T03:05:07;12.30;98.50
5808;DHT22;2930;42.678;23.312;2023-05-23T03:07:32;12.20;98.50
5808;DHT22;2930;42.678;23.312;2023-05-23T03:09:58;12.20;98.50
5808;DHT22;2930;42.678;23.312;2023-05-23T03:12:24;12.30;98.50
5808;DHT22;2930;42.678;23.312;2023-05-23T03:14:50;12.20;98.50
5808;DHT22;2930;42.678;23.312;2023-05-23T03:17:15;12.20;98.50
5808;DHT22;2930;42.678;23.312;2023-05-23T03:19:41;12.20;98.50
5808;DHT22;2930;42.678;23.312;2023-05-23T03:22:06;12.20;98.50
5808;DHT22;2930;42.678;23.312;2023-05-23T03:24:32;12.20;98.50
5808;DHT22;2930;42.678;23.312;2023-05-23T03:26:57;12.10;98.50
5808;DHT22;2930;42.678;23.312;2023-05-23T03:29:23;12.10;98.50
5808;DHT22;2930;42.678;23.312;2023-05-23T03:31:48;12.10;98.50
5808;DHT22;2930;42.678;23.312;2023-05-23T03:34:14;12.20;98.50
5808;DHT22;2930;42.678;23.312;2023-05-23T03:36:40;12.20;98.50
5808;DHT22;2930;42.678;23.312;2023-05-23T03:39:06;12.20;98.50
5808;DHT22;2930;42.678;23.312;2023-05-23T03:41:31;12.20;98.50
5808;DHT22;2930;42.678;23.312;2023-05-23T03:43:57;12.30;98.50
5808;DHT22;2930;42.678;23.312;2023-05-23T03:46:22;12.30;98.50
5808;DHT22;2930;42.678;23.312;2023-05-23T03:48:48;12.30;98.50
5808;DHT22;2930;42.678;23.312;2023-05-23T03:51:14;12.40;98.50
5808;DHT22;2930;42.678;23.312;2023-05-23T03:53:39;12.40;98.50
5808;DHT22;2930;42.678;23.312;2023-05-23T03:56:05;12.40;98.50
5808;DHT22;2930;42.678;23.312;2023-05-23T03:58:30;12.50;98.50
5808;DHT22;2930;42.678;23.312;2023-05-23T04:00:56;12.50;98.50
5808;DHT22;2930;42.678;23.312;2023-05-23T04:03:22;12.50;98.50
5808;DHT22;2930;42.678;23.312;2023-05-23T04:05:48;12.50;98.50
5808;DHT22;2930;42.678;23.312;2023-05-23T04:08:13;12.50;98.50
5808;DHT22;2930;42.678;23.312;2023-05-23T04:10:39;12.50;98.50
5808;DHT22;2930;42.678;23.312;2023-05-23T04:13:05;12.50;98.50
5808;DHT22;2930;42.678;23.312;2023-05-23T04:15:31;12.50;98.50
5808;DHT22;2930;42.678;23.312;2023-05-23T04:17:58;12.50;98.50
5808;DHT22;2930;42.678;23.312;2023-05-23T04:20:24;12.40;98.50
5808;DHT22;2930;42.678;23.312;2023-05-23T04:22:50;12.40;98.50
5808;DHT22;2930;42.678;23.312;2023-05-23T04:25:16;12.40;98.50
5808;DHT22;2930;42.678;23.312;2023-05-23T04:27:43;12.50;98.50
5808;DHT22;2930;42.678;23.312;2023-05-23T04:30:08;12.50;98.50
5808;DHT22;2930;42.678;23.312;2023-05-23T04:32:35;12.50;98.50
5808;DHT22;2930;42.678;23.312;2023-05-23T04:35:00;12.50;98.50
5808;DHT22;2930;42.678;23.312;2023-05-23T04:37:26;12.50;98.50
5808;DHT22;2930;42.678;23.312;2023-05-23T04:39:52;12.60;98.50
5808;DHT22;2930;42.678;23.312;2023-05-23T04:42:18;12.60;98.50
5808;DHT22;2930;42.678;23.312;2023-05-23T04:44:49;12.60;98.50
5808;DHT22;2930;42.678;23.312;2023-05-23T04:47:14;12.60;98.50
5808;DHT22;2930;42.678;23.312;2023-05-23T04:49:40;12.60;98.50
5808;DHT22;2930;42.678;23.312;2023-05-23T04:52:06;12.60;98.50
5808;DHT22;2930;42.678;23.312;2023-05-23T04:54:32;12.70;98.50
5808;DHT22;2930;42.678;23.312;2023-05-23T04:56:57;12.70;98.50
5808;DHT22;2930;42.678;23.312;2023-05-23T04:59:23;12.80;98.50
5808;DHT22;2930;42.678;23.312;2023-05-23T05:01:48;12.90;98.50
5808;DHT22;2930;42.678;23.312;2023-05-23T05:04:14;12.90;98.50
5808;DHT22;2930;42.678;23.312;2023-05-23T05:06:40;13.00;98.50
5808;DHT22;2930;42.678;23.312;2023-05-23T05:09:05;13.00;98.50
5808;DHT22;2930;42.678;23.312;2023-05-23T05:11:31;13.00;98.50
5808;DHT22;2930;42.678;23.312;2023-05-23T05:13:56;13.00;98.50
5808;DHT22;2930;42.678;23.312;2023-05-23T05:16:22;13.10;98.50
5808;DHT22;2930;42.678;23.312;2023-05-23T05:18:48;13.10;98.50
5808;DHT22;2930;42.678;23.312;2023-05-23T05:21:13;13.20;98.50
5808;DHT22;2930;42.678;23.312;2023-05-23T05:23:39;13.30;98.50
5808;DHT22;2930;42.678;23.312;2023-05-23T05:26:05;13.40;98.50
5808;DHT22;2930;42.678;23.312;2023-05-23T05:28:30;13.40;98.50
5808;DHT22;2930;42.678;23.312;2023-05-23T05:30:56;13.50;98.50
5808;DHT22;2930;42.678;23.312;2023-05-23T05:33:22;13.50;98.50
5808;DHT22;2930;42.678;23.312;2023-05-23T05:35:52;13.50;98.50
5808;DHT22;2930;42.678;23.312;2023-05-23T05:38:18;13.60;98.50
5808;DHT22;2930;42.678;23.312;2023-05-23T05:40:43;13.70;98.50
5808;DHT22;2930;42.678;23.312;2023-05-23T05:43:09;13.60;98.50
5808;DHT22;2930;42.678;23.312;2023-05-23T05:45:35;13.70;98.50
5808;DHT22;2930;42.678;23.312;2023-05-23T05:48:00;13.70;98.50
5808;DHT22;2930;42.678;23.312;2023-05-23T05:50:26;13.80;98.50
5808;DHT22;2930;42.678;23.312;2023-05-23T05:52:51;13.80;98.50
5808;DHT22;2930;42.678;23.312;2023-05-23T05:55:17;13.90;98.20
5808;DHT22;2930;42.678;23.312;2023-05-23T05:57:42;13.90;98.50
5808;DHT22;2930;42.678;23.312;2023-05-23T06:00:08;13.90;98.50
5808;DHT22;2930;42.678;23.312;2023-05-23T06:02:38;14.00;98.50
5808;DHT22;2930;42.678;23.312;2023-05-23T06:05:04;14.10;98.10
5808;DHT22;2930;42.678;23.312;2023-05-23T06:07:34;14.20;97.60
5808;DHT22;2930;42.678;23.312;2023-05-23T06:10:01;14.30;97.60
5808;DHT22;2930;42.678;23.312;2023-05-23T06:12:26;14.40;97.40
5808;DHT22;2930;42.678;23.312;2023-05-23T06:14:52;14.50;97.60
5808;DHT22;2930;42.678;23.312;2023-05-23T06:17:17;14.60;96.80
5808;DHT22;2930;42.678;23.312;2023-05-23T06:19:43;14.70;96.10
5808;DHT22;2930;42.678;23.312;2023-05-23T06:22:08;14.80;96.30
5808;DHT22;2930;42.678;23.312;2023-05-23T06:24:34;14.90;96.20
5808;DHT22;2930;42.678;23.312;2023-05-23T06:26:59;15.00;95.90
5808;DHT22;2930;42.678;23.312;2023-05-23T06:29:25;15.10;96.90
5808;DHT22;2930;42.678;23.312;2023-05-23T06:31:50;15.20;97.10
5808;DHT22;2930;42.678;23.312;2023-05-23T06:34:16;15.20;95.70
5808;DHT22;2930;42.678;23.312;2023-05-23T06:36:42;15.30;95.20
5808;DHT22;2930;42.678;23.312;2023-05-23T06:39:08;15.40;95.20
5808;DHT22;2930;42.678;23.312;2023-05-23T06:41:37;15.50;95.50
5808;DHT22;2930;42.678;23.312;2023-05-23T06:44:03;15.60;95.20
5808;DHT22;2930;42.678;23.312;2023-05-23T06:46:28;15.70;94.20
5808;DHT22;2930;42.678;23.312;2023-05-23T06:48:54;15.80;93.30
5808;DHT22;2930;42.678;23.312;2023-05-23T06:51:19;15.90;92.90
5808;DHT22;2930;42.678;23.312;2023-05-23T06:53:45;16.00;92.30
5808;DHT22;2930;42.678;23.312;2023-05-23T06:56:10;16.00;92.30
5808;DHT22;2930;42.678;23.312;2023-05-23T06:58:36;16.10;92.50
5808;DHT22;2930;42.678;23.312;2023-05-23T07:01:01;16.10;93.40
5808;DHT22;2930;42.678;23.312;2023-05-23T07:03:27;16.20;93.70
5808;DHT22;2930;42.678;23.312;2023-05-23T07:05:52;16.00;92.70
5808;DHT22;2930;42.678;23.312;2023-05-23T07:08:18;16.00;92.60
5808;DHT22;2930;42.678;23.312;2023-05-23T07:10:43;16.00;93.00
5808;DHT22;2930;42.678;23.312;2023-05-23T07:13:09;16.00;92.10
5808;DHT22;2930;42.678;23.312;2023-05-23T07:15:35;16.00;92.30
5808;DHT22;2930;42.678;23.312;2023-05-23T07:18:00;16.00;93.40
5808;DHT22;2930;42.678;23.312;2023-05-23T07:20:26;16.00;93.00
5808;DHT22;2930;42.678;23.312;2023-05-23T07:22:51;16.00;92.90
5808;DHT22;2930;42.678;23.312;2023-05-23T07:25:17;16.00;91.80
5808;DHT22;2930;42.678;23.312;2023-05-23T07:27:43;15.90;92.10
5808;DHT22;2930;42.678;23.312;2023-05-23T07:30:09;15.90;92.10
5808;DHT22;2930;42.678;23.312;2023-05-23T07:32:35;15.90;93.30
5808;DHT22;2930;42.678;23.312;2023-05-23T07:35:00;16.00;93.30
5808;DHT22;2930;42.678;23.312;2023-05-23T07:37:26;16.00;93.10
5808;DHT22;2930;42.678;23.312;2023-05-23T07:39:52;16.00;93.40
5808;DHT22;2930;42.678;23.312;2023-05-23T07:42:17;16.10;93.50
5808;DHT22;2930;42.678;23.312;2023-05-23T07:44:43;16.20;93.60
5808;DHT22;2930;42.678;23.312;2023-05-23T07:47:08;16.30;93.50
5808;DHT22;2930;42.678;23.312;2023-05-23T07:49:34;16.30;93.30
5808;DHT22;2930;42.678;23.312;2023-05-23T07:52:00;16.40;93.20
5808;DHT22;2930;42.678;23.312;2023-05-23T07:54:25;16.50;93.50
5808;DHT22;2930;42.678;23.312;2023-05-23T07:56:51;16.50;93.20
5808;DHT22;2930;42.678;23.312;2023-05-23T07:59:17;16.60;93.30
5808;DHT22;2930;42.678;23.312;2023-05-23T08:01:42;16.70;93.40
5808;DHT22;2930;42.678;23.312;2023-05-23T08:04:09;16.80;93.50
5808;DHT22;2930;42.678;23.312;2023-05-23T08:06:34;16.90;92.90
5808;DHT22;2930;42.678;23.312;2023-05-23T08:09:02;16.90;92.70
5808;DHT22;2930;42.678;23.312;2023-05-23T08:11:27;17.00;92.70
5808;DHT22;2930;42.678;23.312;2023-05-23T08:13:54;17.10;91.70
5808;DHT22;2930;42.678;23.312;2023-05-23T08:16:20;17.10;91.90
5808;DHT22;2930;42.678;23.312;2023-05-23T08:18:45;17.20;92.00
5808;DHT22;2930;42.678;23.312;2023-05-23T08:21:11;17.30;92.00
5808;DHT22;2930;42.678;23.312;2023-05-23T08:23:36;17.30;92.00
5808;DHT22;2930;42.678;23.312;2023-05-23T08:26:02;17.40;91.70
5808;DHT22;2930;42.678;23.312;2023-05-23T08:28:27;17.50;91.10
5808;DHT22;2930;42.678;23.312;2023-05-23T08:30:53;17.60;91.20
5808;DHT22;2930;42.678;23.312;2023-05-23T08:33:21;17.70;90.80
5808;DHT22;2930;42.678;23.312;2023-05-23T08:35:46;17.80;90.50
5808;DHT22;2930;42.678;23.312;2023-05-23T08:38:12;17.90;89.90
5808;DHT22;2930;42.678;23.312;2023-05-23T08:40:37;18.00;90.00
5808;DHT22;2930;42.678;23.312;2023-05-23T08:43:04;18.10;90.00
5808;DHT22;2930;42.678;23.312;2023-05-23T08:45:30;18.20;88.70
5808;DHT22;2930;42.678;23.312;2023-05-23T08:47:55;18.30;88.70
5808;DHT22;2930;42.678;23.312;2023-05-23T08:50:24;18.40;88.10
5808;DHT22;2930;42.678;23.312;2023-05-23T08:52:56;18.40;88.20
5808;DHT22;2930;42.678;23.312;2023-05-23T08:55:25;18.60;88.50
5808;DHT22;2930;42.678;23.312;2023-05-23T08:57:52;18.70;88.10
5808;DHT22;2930;42.678;23.312;2023-05-23T09:00:18;18.80;87.90
5808;DHT22;2930;42.678;23.312;2023-05-23T09:02:44;18.90;87.30
5808;DHT22;2930;42.678;23.312;2023-05-23T09:05:09;19.00;87.10
5808;DHT22;2930;42.678;23.312;2023-05-23T09:07:35;19.10;86.60
5808;DHT22;2930;42.678;23.312;2023-05-23T09:10:05;19.30;86.20
5808;DHT22;2930;42.678;23.312;2023-05-23T09:12:31;19.40;85.60
5808;DHT22;2930;42.678;23.312;2023-05-23T09:14:57;19.60;83.60
5808;DHT22;2930;42.678;23.312;2023-05-23T09:17:23;19.70;84.60
5808;DHT22;2930;42.678;23.312;2023-05-23T09:19:49;19.80;82.50
5808;DHT22;2930;42.678;23.312;2023-05-23T09:22:15;20.00;82.90
5808;DHT22;2930;42.678;23.312;2023-05-23T09:24:40;20.10;82.00
5808;DHT22;2930;42.678;23.312;2023-05-23T09:27:06;20.20;81.50
5808;DHT22;2930;42.678;23.312;2023-05-23T09:29:32;20.40;81.30
5808;DHT22;2930;42.678;23.312;2023-05-23T09:32:10;20.50;79.70
5808;DHT22;2930;42.678;23.312;2023-05-23T09:34:39;20.60;78.50
5808;DHT22;2930;42.678;23.312;2023-05-23T09:37:04;20.80;77.20
5808;DHT22;2930;42.678;23.312;2023-05-23T09:39:30;20.80;70.70
5808;DHT22;2930;42.678;23.312;2023-05-23T09:41:57;20.70;71.40
5808;DHT22;2930;42.678;23.312;2023-05-23T09:44:23;20.90;73.60
5808;DHT22;2930;42.678;23.312;2023-05-23T09:46:49;21.00;73.10
5808;DHT22;2930;42.678;23.312;2023-05-23T09:49:16;21.20;74.60
5808;DHT22;2930;42.678;23.312;2023-05-23T09:51:42;21.30;71.40
5808;DHT22;2930;42.678;23.312;2023-05-23T09:54:08;21.40;73.40
5808;DHT22;2930;42.678;23.312;2023-05-23T09:56:34;21.60;70.60
5808;DHT22;2930;42.678;23.312;2023-05-23T09:59:03;21.60;68.40
5808;DHT22;2930;42.678;23.312;2023-05-23T10:01:31;21.80;71.80
5808;DHT22;2930;42.678;23.312;2023-05-23T10:03:57;22.00;69.20
5808;DHT22;2930;42.678;23.312;2023-05-23T10:08:56;22.30;67.70
5808;DHT22;2930;42.678;23.312;2023-05-23T10:13:59;22.60;64.90
5808;DHT22;2930;42.678;23.312;2023-05-23T10:16:39;22.80;67.00
5808;DHT22;2930;42.678;23.312;2023-05-23T10:19:19;23.20;65.20
5808;DHT22;2930;42.678;23.312;2023-05-23T10:21:49;23.80;64.00
5808;DHT22;2930;42.678;23.312;2023-05-23T10:24:15;24.20;61.90
5808;DHT22;2930;42.678;23.312;2023-05-23T10:26:41;24.60;60.80
5808;DHT22;2930;42.678;23.312;2023-05-23T10:29:07;25.00;61.10
5808;DHT22;2930;42.678;23.312;2023-05-23T10:31:33;25.50;58.60
5808;DHT22;2930;42.678;23.312;2023-05-23T10:36:42;26.20;56.20
5808;DHT22;2930;42.678;23.312;2023-05-23T10:39:19;26.30;56.90
5808;DHT22;2930;42.678;23.312;2023-05-23T10:41:54;26.50;59.30
5808;DHT22;2930;42.678;23.312;2023-05-23T10:44:26;26.90;59.70
5808;DHT22;2930;42.678;23.312;2023-05-23T10:46:56;27.50;58.70
5808;DHT22;2930;42.678;23.312;2023-05-23T10:52:07;28.40;54.20
5808;DHT22;2930;42.678;23.312;2023-05-23T10:54:54;29.00;54.00
5808;DHT22;2930;42.678;23.312;2023-05-23T10:57:20;29.50;53.00
5808;DHT22;2930;42.678;23.312;2023-05-23T10:59:46;30.00;52.30
5808;DHT22;2930;42.678;23.312;2023-05-23T11:02:14;30.10;50.20
5808;DHT22;2930;42.678;23.312;2023-05-23T11:04:40;30.20;50.70
5808;DHT22;2930;42.678;23.312;2023-05-23T11:07:29;30.40;50.80
5808;DHT22;2930;42.678;23.312;2023-05-23T11:10:09;30.60;50.50
5808;DHT22;2930;42.678;23.312;2023-05-23T11:12:42;30.50;50.10
5808;DHT22;2930;42.678;23.312;2023-05-23T11:17:39;29.60;51.10
5808;DHT22;2930;42.678;23.312;2023-05-23T11:20:13;29.60;52.30
5808;DHT22;2930;42.678;23.312;2023-05-23T11:22:47;29.90;53.20
5808;DHT22;2930;42.678;23.312;2023-05-23T11:25:17;30.20;50.80
5808;DHT22;2930;42.678;23.312;2023-05-23T11:27:45;30.70;50.30
5808;DHT22;2930;42.678;23.312;2023-05-23T11:30:11;31.30;48.90
5808;DHT22;2930;42.678;23.312;2023-05-23T11:32:37;31.90;48.00
5808;DHT22;2930;42.678;23.312;2023-05-23T11:35:03;32.40;48.40
5808;DHT22;2930;42.678;23.312;2023-05-23T11:37:30;32.70;47.80
5808;DHT22;2930;42.678;23.312;2023-05-23T11:39:56;33.20;47.90
5808;DHT22;2930;42.678;23.312;2023-05-23T11:42:22;33.60;46.60
5808;DHT22;2930;42.678;23.312;2023-05-23T11:44:51;34.10;46.50
5808;DHT22;2930;42.678;23.312;2023-05-23T11:47:16;34.40;44.80
5808;DHT22;2930;42.678;23.312;2023-05-23T11:49:43;34.50;44.70
5808;DHT22;2930;42.678;23.312;2023-05-23T11:52:09;34.60;46.90
5808;DHT22;2930;42.678;23.312;2023-05-23T11:54:35;34.60;45.30
5808;DHT22;2930;42.678;23.312;2023-05-23T11:57:00;34.80;44.80
5808;DHT22;2930;42.678;23.312;2023-05-23T11:59:26;34.90;44.50
5808;DHT22;2930;42.678;23.312;2023-05-23T12:01:52;35.00;44.80
5808;DHT22;2930;42.678;23.312;2023-05-23T12:04:18;34.80;45.10
5808;DHT22;2930;42.678;23.312;2023-05-23T12:06:47;34.90;45.90
5808;DHT22;2930;42.678;23.312;2023-05-23T12:09:13;35.30;44.90
5808;DHT22;2930;42.678;23.312;2023-05-23T12:11:39;35.40;43.90
5808;DHT22;2930;42.678;23.312;2023-05-23T12:14:06;35.40;42.80
5808;DHT22;2930;42.678;23.312;2023-05-23T12:16:32;35.50;44.10
5808;DHT22;2930;42.678;23.312;2023-05-23T12:18:58;35.90;43.30
5808;DHT22;2930;42.678;23.312;2023-05-23T12:21:24;36.30;42.50
5808;DHT22;2930;42.678;23.312;2023-05-23T12:23:49;36.00;44.70
5808;DHT22;2930;42.678;23.312;2023-05-23T12:26:15;35.60;44.50
5808;DHT22;2930;42.678;23.312;2023-05-23T12:28:41;35.30;43.90
5808;DHT22;2930;42.678;23.312;2023-05-23T12:31:17;34.70;44.10
5808;DHT22;2930;42.678;23.312;2023-05-23T12:33:43;34.40;44.00
5808;DHT22;2930;42.678;23.312;2023-05-23T12:36:09;33.80;45.50
5808;DHT22;2930;42.678;23.312;2023-05-23T12:38:35;33.80;45.30
5808;DHT22;2930;42.678;23.312;2023-05-23T12:41:15;34.00;47.00
5808;DHT22;2930;42.678;23.312;2023-05-23T12:43:48;34.30;45.70
5808;DHT22;2930;42.678;23.312;2023-05-23T12:46:13;34.70;45.00
5808;DHT22;2930;42.678;23.312;2023-05-23T12:48:39;35.30;44.60
5808;DHT22;2930;42.678;23.312;2023-05-23T12:51:05;35.50;42.90
5808;DHT22;2930;42.678;23.312;2023-05-23T12:53:30;35.50;43.10
5808;DHT22;2930;42.678;23.312;2023-05-23T12:55:56;35.50;42.30
5808;DHT22;2930;42.678;23.312;2023-05-23T12:58:22;35.60;42.90
5808;DHT22;2930;42.678;23.312;2023-05-23T13:00:48;36.00;42.00
5808;DHT22;2930;42.678;23.312;2023-05-23T13:03:13;36.40;41.80
5808;DHT22;2930;42.678;23.312;2023-05-23T13:05:39;36.90;41.20
5808;DHT22;2930;42.678;23.312;2023-05-23T13:08:04;37.40;41.10
5808;DHT22;2930;42.678;23.312;2023-05-23T13:10:30;37.60;41.10
5808;DHT22;2930;42.678;23.312;2023-05-23T13:12:56;37.60;40.10
5808;DHT22;2930;42.678;23.312;2023-05-23T13:15:21;37.60;40.70
5808;DHT22;2930;42.678;23.312;2023-05-23T13:17:47;37.70;39.10
5808;DHT22;2930;42.678;23.312;2023-05-23T13:20:13;37.60;39.50
5808;DHT22;2930;42.678;23.312;2023-05-23T13:22:39;37.40;39.00
5808;DHT22;2930;42.678;23.312;2023-05-23T13:25:05;36.80;38.90
5808;DHT22;2930;42.678;23.312;2023-05-23T13:27:32;36.40;39.90
5808;DHT22;2930;42.678;23.312;2023-05-23T13:29:58;36.40;40.70
5808;DHT22;2930;42.678;23.312;2023-05-23T13:32:23;36.40;40.60
5808;DHT22;2930;42.678;23.312;2023-05-23T13:34:49;36.30;40.70
5808;DHT22;2930;42.678;23.312;2023-05-23T13:37:15;36.30;41.80
5808;DHT22;2930;42.678;23.312;2023-05-23T13:39:40;36.20;41.20
5808;DHT22;2930;42.678;23.312;2023-05-23T13:42:06;35.90;41.60
5808;DHT22;2930;42.678;23.312;2023-05-23T13:44:32;35.90;41.90
5808;DHT22;2930;42.678;23.312;2023-05-23T13:47:00;35.90;42.00
5808;DHT22;2930;42.678;23.312;2023-05-23T13:49:33;35.90;42.20
5808;DHT22;2930;42.678;23.312;2023-05-23T13:51:59;36.00;40.80
5808;DHT22;2930;42.678;23.312;2023-05-23T13:54:24;36.30;40.30
5808;DHT22;2930;42.678;23.312;2023-05-23T13:56:50;36.50;40.40
5808;DHT22;2930;42.678;23.312;2023-05-23T13:59:16;36.50;41.00
5808;DHT22;2930;42.678;23.312;2023-05-23T14:01:45;36.60;40.70
5808;DHT22;2930;42.678;23.312;2023-05-23T14:04:11;36.60;40.60
5808;DHT22;2930;42.678;23.312;2023-05-23T14:06:36;36.10;40.00
5808;DHT22;2930;42.678;23.312;2023-05-23T14:09:02;35.50;41.10
5808;DHT22;2930;42.678;23.312;2023-05-23T14:11:28;34.90;41.30
5808;DHT22;2930;42.678;23.312;2023-05-23T14:13:53;34.70;42.30
5808;DHT22;2930;42.678;23.312;2023-05-23T14:16:19;34.70;42.00
5808;DHT22;2930;42.678;23.312;2023-05-23T14:18:45;34.90;42.40
5808;DHT22;2930;42.678;23.312;2023-05-23T14:21:10;35.00;42.40
5808;DHT22;2930;42.678;23.312;2023-05-23T14:23:36;35.00;41.60
5808;DHT22;2930;42.678;23.312;2023-05-23T14:26:01;34.80;41.10
5808;DHT22;2930;42.678;23.312;2023-05-23T14:28:27;34.60;41.60
5808;DHT22;2930;42.678;23.312;2023-05-23T14:30:52;34.10;40.20
5808;DHT22;2930;42.678;23.312;2023-05-23T14:33:19;33.60;40.70
5808;DHT22;2930;42.678;23.312;2023-05-23T14:35:45;33.00;42.20
5808;DHT22;2930;42.678;23.312;2023-05-23T14:38:11;32.40;43.00
5808;DHT22;2930;42.678;23.312;2023-05-23T14:40:36;32.20;45.80
5808;DHT22;2930;42.678;23.312;2023-05-23T14:43:02;32.40;46.80
5808;DHT22;2930;42.678;23.312;2023-05-23T14:45:27;32.50;47.10
5808;DHT22;2930;42.678;23.312;2023-05-23T14:47:53;32.40;47.40
5808;DHT22;2930;42.678;23.312;2023-05-23T14:50:18;32.40;46.80
5808;DHT22;2930;42.678;23.312;2023-05-23T14:52:44;32.40;45.70
5808;DHT22;2930;42.678;23.312;2023-05-23T14:55:09;32.40;45.90
5808;DHT22;2930;42.678;23.312;2023-05-23T14:57:35;32.60;45.60
5808;DHT22;2930;42.678;23.312;2023-05-23T15:00:01;32.80;45.00
5808;DHT22;2930;42.678;23.312;2023-05-23T15:02:30;33.20;44.20
5808;DHT22;2930;42.678;23.312;2023-05-23T15:04:55;33.50;43.10
5808;DHT22;2930;42.678;23.312;2023-05-23T15:07:21;33.90;42.20
5808;DHT22;2930;42.678;23.312;2023-05-23T15:09:47;34.20;41.50
5808;DHT22;2930;42.678;23.312;2023-05-23T15:12:13;34.30;41.40
5808;DHT22;2930;42.678;23.312;2023-05-23T15:14:42;34.20;43.20
5808;DHT22;2930;42.678;23.312;2023-05-23T15:17:08;34.20;43.70
5808;DHT22;2930;42.678;23.312;2023-05-23T15:19:34;34.20;43.00
5808;DHT22;2930;42.678;23.312;2023-05-23T15:22:00;34.30;43.10
5808;DHT22;2930;42.678;23.312;2023-05-23T15:24:25;34.40;42.80
5808;DHT22;2930;42.678;23.312;2023-05-23T15:26:51;34.40;42.40
5808;DHT22;2930;42.678;23.312;2023-05-23T15:29:16;34.40;42.30
5808;DHT22;2930;42.678;23.312;2023-05-23T15:31:42;34.50;41.60
5808;DHT22;2930;42.678;23.312;2023-05-23T15:34:09;34.30;41.80
5808;DHT22;2930;42.678;23.312;2023-05-23T15:36:35;34.00;42.30
5808;DHT22;2930;42.678;23.312;2023-05-23T15:39:01;33.80;43.40
5808;DHT22;2930;42.678;23.312;2023-05-23T15:41:26;33.60;43.60
5808;DHT22;2930;42.678;23.312;2023-05-23T15:43:52;33.40;43.30
5808;DHT22;2930;42.678;23.312;2023-05-23T15:46:18;33.20;44.70
5808;DHT22;2930;42.678;23.312;2023-05-23T15:48:43;32.80;44.70
5808;DHT22;2930;42.678;23.312;2023-05-23T15:51:09;32.40;45.60
5808;DHT22;2930;42.678;23.312;2023-05-23T15:53:34;31.90;46.30
5808;DHT22;2930;42.678;23.312;2023-05-23T15:56:00;31.80;46.70
5808;DHT22;2930;42.678;23.312;2023-05-23T15:58:25;31.70;46.70
5808;DHT22;2930;42.678;23.312;2023-05-23T16:00:51;31.60;46.10
5808;DHT22;2930;42.678;23.312;2023-05-23T16:03:17;31.50;45.80
5808;DHT22;2930;42.678;23.312;2023-05-23T16:05:42;31.40;46.50